Flight Track Log - Related Links

Times and Time Zones

All times are in EDT time to prevent confusion due to time zone crossing. See the SWA1086 flight status page for this flight to view local times or setup timezone preferences in your user account.

Time Position Orientation Groundspeed Altitude Reporting Facility
EDT Latitude Longitude Course Direction KTS MPH feet Rate Location/Type
Sun 06:30:18 PM 39.8833 -104.5833 75° East 180 207 7,000  Level Denver TRACON
Sun 06:31:18 PM 39.9000 -104.5000 75° East 240 276 9,000 2,300 Climbing Denver TRACON
Sun 06:32:18 PM 39.9500 -104.5000 360° North 244 281 11,600 1,762 Climbing Denver TRACON
Sun 06:33:24 PM 40.0333 -104.5500 335° Northwest 333 383 12,700 2,000 Climbing Denver TRACON
Sun 06:34:18 PM 40.1167 -104.6000 335° Northwest 345 397 15,600 2,679 Climbing Denver TRACON
Sun 06:35:16 PM 40.1967 -104.6650 328° Northwest 366 421 17,700 2,269 Climbing Denver Center
Sun 06:36:17 PM 40.2922 -104.7325 332° Northwest 392 451 20,100 2,488 Climbing Denver Center
Sun 06:37:19 PM 40.3958 -104.8072 331° Northwest 397 457 22,800 2,244 Climbing Denver Center
Sun 06:38:20 PM 40.4844 -104.8719 331° Northwest 406 467 24,700 2,146 Climbing Denver Center
Sun 06:39:22 PM 40.6061 -104.9589 332° Northwest 419 482 27,200 1,902 Climbing Denver Center
Sun 06:40:23 PM 40.7097 -105.0319 332° Northwest 421 484 28,600 1,366 Climbing Denver Center
Sun 06:41:25 PM 40.8106 -105.1164 328° Northwest 425 489 30,000 1,610 Climbing Denver Center
Sun 06:42:26 PM 40.8989 -105.2331 315° West 445 512 31,900 1,869 Climbing Denver Center
Sun 06:43:27 PM 40.9614 -105.3700 301° West 440 506 33,800 1,756 Climbing Denver Center
Sun 06:44:29 PM 41.0264 -105.5172 300° West 437 503 35,500 1,610 Climbing Denver Center
Sun 06:45:30 PM 41.0833 -105.6486 300° West 431 496 37,100 1,561 Climbing Denver Center
Sun 06:46:32 PM 41.1497 -105.7989 300° West 424 488 38,700 1,220 Climbing Denver Center
Sun 06:47:33 PM 41.2050 -105.9286 300° West 423 487 39,600 639 Climbing Denver Center
Sun 06:48:34 PM 41.2606 -106.0572 300° West 419 482 40,000 195 Climbing Denver Center
Sun 06:49:36 PM 41.3253 -106.2106 299° West 424 488 40,000  Level Denver Center
Sun 06:50:37 PM 41.3828 -106.3422 300° West 427 491 40,000  Level Denver Center
Sun 06:51:39 PM 41.4500 -106.4994 300° West 433 498 40,000  Level Denver Center
Sun 06:52:40 PM 41.5097 -106.6422 299° West 437 503 40,000  Level Denver Center
Sun 06:53:42 PM 41.5661 -106.7769 299° West 437 503 40,000  Level Denver Center
Sun 06:54:43 PM 41.6225 -106.9125 299° West 436 502 40,000  Level Denver Center
Sun 06:55:45 PM 41.6894 -107.0714 299° West 437 503 40,000  Level Denver Center
Sun 06:56:46 PM 41.7464 -107.2075 299° West 438 504 40,000  Level Denver Center
Sun 06:57:48 PM 41.8111 -107.3650 299° West 435 501 40,000  Level Denver Center
Sun 06:58:50 PM 41.8661 -107.5006 299° West 434 499 40,000  Level Denver Center
Sun 06:59:51 PM 41.9311 -107.6575 299° West 432 497 40,000  Level Denver Center
Sun 07:00:38 PM 41.9750 -107.7694 298° West 431 496 40,000  Level Salt Lake Center
Sun 07:01:39 PM 42.0294 -107.9031 299° West 429 494 40,000  Level Salt Lake Center
Sun 07:02:41 PM 42.0833 -108.0383 298° West 430 495 40,000  Level Salt Lake Center
Sun 07:03:42 PM 42.1492 -108.1989 299° West 438 504 40,000  Level Salt Lake Center
Sun 07:04:43 PM 42.2014 -108.3331 298° West 428 493 40,000  Level Salt Lake Center
Sun 07:05:44 PM 42.2664 -108.4939 299° West 438 504 40,000  Level Salt Lake Center
Sun 07:06:46 PM 42.3203 -108.6308 298° West 435 501 40,000  Level Salt Lake Center
Sun 07:07:47 PM 42.3733 -108.7686 298° West 434 499 40,000  Level Salt Lake Center
Sun 07:08:48 PM 42.4344 -108.9272 298° West 430 495 40,000  Level Salt Lake Center
Sun 07:09:49 PM 42.4883 -109.0661 298° West 435 501 40,000  Level Salt Lake Center
Sun 07:10:51 PM 42.5506 -109.2253 298° West 431 496 40,000  Level Salt Lake Center
Sun 07:11:52 PM 42.6031 -109.3628 297° West 430 495 40,000  Level Salt Lake Center
Sun 07:12:53 PM 42.6633 -109.5225 297° West 428 493 40,000  Level Salt Lake Center
Sun 07:13:55 PM 42.7156 -109.6583 298° West 426 490 40,000  Level Salt Lake Center
Sun 07:14:56 PM 42.7675 -109.7958 297° West 426 490 40,000  Level Salt Lake Center
Sun 07:15:58 PM 42.8253 -109.9500 297° West 425 489 40,000  Level Salt Lake Center
Sun 07:16:59 PM 42.8772 -110.0867 297° West 425 489 40,000  Level Salt Lake Center
Sun 07:18:00 PM 42.9372 -110.2486 297° West 427 491 40,000  Level Salt Lake Center
Sun 07:19:02 PM 42.9886 -110.3867 297° West 426 490 40,000  Level Salt Lake Center
Sun 07:20:03 PM 43.0472 -110.5472 297° West 424 488 40,000  Level Salt Lake Center
Sun 07:21:04 PM 43.0997 -110.6850 298° West 426 490 40,000  Level Salt Lake Center
Sun 07:22:06 PM 43.1500 -110.8244 296° West 426 490 40,000  Level Salt Lake Center
Sun 07:23:07 PM 43.2092 -110.9889 296° West 429 494 40,000  Level Salt Lake Center
Sun 07:24:08 PM 43.2606 -111.1275 297° West 426 490 40,000  Level Salt Lake Center
Sun 07:25:10 PM 43.3097 -111.2686 296° West 427 491 40,000  Level Salt Lake Center
Sun 07:26:11 PM 43.3689 -111.4317 297° West 426 490 40,000  Level Salt Lake Center
Sun 07:27:12 PM 43.4192 -111.5700 297° West 424 488 40,000  Level Salt Lake Center
Sun 07:28:14 PM 43.4753 -111.7328 295° West 422 486 40,000  Level Salt Lake Center
Sun 07:29:15 PM 43.5250 -111.8711 296° West 421 484 40,000  Level Salt Lake Center
Sun 07:30:17 PM 43.5739 -112.0106 296° West 421 484 40,000  Level Salt Lake Center
Sun 07:31:18 PM 43.6311 -112.1750 296° West 426 490 40,000  Level Salt Lake Center
Sun 07:32:19 PM 43.6794 -112.3158 295° West 423 487 40,000  Level Salt Lake Center
Sun 07:33:21 PM 43.7347 -112.4767 295° West 417 480 40,000  Level Salt Lake Center
Sun 07:34:22 PM 43.7822 -112.6156 295° West 416 479 40,000 49 Level Salt Lake Center
Sun 07:35:23 PM 43.8294 -112.7556 295° West 418 481 40,100  Climbing Salt Lake Center
Sun 07:36:25 PM 43.8842 -112.9181 295° West 417 480 40,000 -49 Descending Salt Lake Center
Sun 07:37:26 PM 43.9317 -113.0578 295° West 417 480 40,000  Level Salt Lake Center
Sun 07:38:27 PM 43.9783 -113.1992 295° West 420 483 40,000  Level Salt Lake Center
Sun 07:39:29 PM 44.0342 -113.3664 295° West 425 489 40,000  Level Salt Lake Center
Sun 07:40:30 PM 44.0811 -113.5072 295° West 422 486 40,000  Level Salt Lake Center
Sun 07:41:31 PM 44.1369 -113.6758 295° West 425 489 40,000  Level Salt Lake Center
Sun 07:42:33 PM 44.1856 -113.8194 295° West 428 493 40,000  Level Salt Lake Center
Sun 07:43:34 PM 44.2306 -113.9614 294° West 424 488 40,000  Level Salt Lake Center
Sun 07:44:36 PM 44.2861 -114.1281 295° West 423 487 40,000  Level Salt Lake Center
Sun 07:45:37 PM 44.3311 -114.2711 294° West 421 484 40,000  Level Salt Lake Center
Sun 07:46:38 PM 44.3856 -114.4381 295° West 423 487 40,000  Level Salt Lake Center
Sun 07:47:40 PM 44.4439 -114.5758 301° West 427 491 40,000  Level Salt Lake Center
Sun 07:48:41 PM 44.4989 -114.7156 299° West 428 493 40,000  Level Salt Lake Center
Sun 07:49:42 PM 44.5644 -114.8797 299° West 430 495 40,000  Level Salt Lake Center
Sun 07:50:44 PM 44.6200 -115.0197 299° West 428 493 40,000  Level Salt Lake Center
Sun 07:51:45 PM 44.6761 -115.1594 299° West 429 494 40,000  Level Salt Lake Center
Sun 07:52:46 PM 44.7400 -115.3228 299° West 429 494 40,000  Level Salt Lake Center
Sun 07:53:48 PM 44.7922 -115.4539 299° West 428 493 40,000  Level Salt Lake Center
Sun 07:54:49 PM 44.8486 -115.5994 299° West 428 493 40,000  Level Salt Lake Center
Sun 07:55:50 PM 44.9158 -115.7750 298° West 424 488 40,000  Level Salt Lake Center
Sun 07:56:52 PM 44.9717 -115.9206 299° West 425 489 40,000  Level Salt Lake Center
Sun 07:57:53 PM 45.0267 -116.0625 299° West 423 487 40,000  Level Salt Lake Center
Sun 07:58:54 PM 45.0822 -116.2097 298° West 425 489 40,000  Level Salt Lake Center
Sun 07:59:39 PM 45.1261 -116.3275 298° West 424 488 40,000  Level Seattle Center
Sun 08:00:40 PM 45.1822 -116.4744 298° West 425 489 40,000  Level Seattle Center
Sun 08:01:40 PM 45.2375 -116.6222 298° West 426 490 40,000  Level Seattle Center
Sun 08:02:41 PM 45.2933 -116.7706 298° West 427 491 40,000  Level Seattle Center
Sun 08:03:42 PM 45.3481 -116.9206 297° West 427 491 40,000  Level Seattle Center
Sun 08:04:43 PM 45.4036 -117.0697 298° West 427 491 40,000  Level Seattle Center
Sun 08:05:44 PM 45.4583 -117.2206 297° West 428 493 40,000  Level Seattle Center
Sun 08:06:44 PM 45.5119 -117.3661 298° West 423 487 40,000  Level Seattle Center
Sun 08:07:45 PM 45.5653 -117.5144 297° West 421 484 40,000  Level Seattle Center
Sun 08:08:46 PM 45.6203 -117.6633 298° West 424 488 40,000  Level Seattle Center
Sun 08:09:47 PM 45.6728 -117.8136 297° West 424 488 40,000  Level Seattle Center
Sun 08:10:47 PM 45.7267 -117.9656 297° West 423 487 40,000  Level Seattle Center
Sun 08:11:48 PM 45.7803 -118.1144 297° West 423 487 40,000  Level Seattle Center
Sun 08:12:49 PM 45.8333 -118.2650 297° West 423 487 40,000  Level Seattle Center
Sun 08:13:50 PM 45.8869 -118.4178 297° West 427 491 40,000  Level Seattle Center
Sun 08:14:51 PM 45.9486 -118.5942 297° West 425 489 40,000  Level Seattle Center
Sun 08:15:51 PM 46.0014 -118.7458 297° West 424 488 40,000  Level Seattle Center
Sun 08:16:52 PM 46.0542 -118.9006 296° West 431 496 40,000  Level Seattle Center
Sun 08:17:53 PM 46.1078 -119.0542 297° West 432 497 40,000  Level Seattle Center
Sun 08:18:54 PM 46.1597 -119.2092 296° West 432 497 40,000  Level Seattle Center
Sun 08:19:54 PM 46.2122 -119.3650 296° West 432 497 40,000  Level Seattle Center
Sun 08:20:55 PM 46.2631 -119.5164 296° West 425 489 40,000  Level Seattle Center
Sun 08:21:56 PM 46.3142 -119.6714 296° West 428 493 40,000  Level Seattle Center
Sun 08:22:57 PM 46.3669 -119.8264 296° West 432 497 40,000  Level Seattle Center
Sun 08:23:58 PM 46.4175 -119.9831 295° West 432 497 40,000  Level Seattle Center
Sun 08:24:58 PM 46.4789 -120.1692 296° West 430 495 40,000  Level Seattle Center
Sun 08:25:59 PM 46.5306 -120.3269 296° West 433 498 40,000 -836 Level Seattle Center
Sun 08:27:00 PM 46.5836 -120.4800 297° West 427 491 38,300 -2,262 Descending Seattle Center
Sun 08:28:01 PM 46.6528 -120.6211 306° West 432 497 35,400 -2,902 Descending Seattle Center
Sun 08:29:02 PM 46.7228 -120.7689 305° West 443 510 32,400 -2,727 Descending Seattle Center
Sun 08:30:02 PM 46.7914 -120.9133 305° West 438 504 29,900 -2,430 Descending Seattle Center
Sun 08:31:03 PM 46.8586 -121.0556 305° West 430 495 27,500 -2,452 Descending Seattle Center
Sun 08:31:35 PM 46.8975 -121.1378 305° West 419 482 26,100 -2,512 Descending Seattle Center
Sun 08:32:29 PM 46.9578 -121.2631 305° West 414 476 23,900 -2,200 Descending Seattle Center
Sun 08:33:05 PM 46.9881 -121.3300 304° West 410 472 22,800 -2,227 Descending Seattle Center
Sun 08:34:06 PM 47.0533 -121.4733 304° West 398 458 20,300 -2,083 Descending Seattle Center
Sun 08:35:06 PM 47.1122 -121.6006 304° West 385 443 18,600 -2,083 Descending Seattle Center
Sun 08:36:07 PM 47.1733 -121.7344 304° West 376 433 16,100 -1,770 Descending Seattle Center
Sun 08:37:08 PM 47.2336 -121.8633 305° West 355 409 15,000 -1,180 Descending Seattle Center
Sun 08:38:09 PM 47.2861 -121.9783 304° West 341 392 13,700 -1,525 Descending Seattle Center
Sun 08:39:10 PM 47.3367 -122.0900 304° West 330 380 11,900 -1,636 Descending Seattle Center
Sun 08:40:10 PM 47.4131 -122.1425 335° Northwest 338 389 10,400 -1,587 Descending Seattle Center
Sun 08:41:11 PM 47.5081 -122.1481 358° North 322 371 8,700 -1,672 Descending Seattle Center
Sun 08:42:12 PM 47.5933 -122.1508 359° North 309 356 7,000 -1,721 Descending Seattle Center
Sun 08:43:13 PM 47.6614 -122.2139 328° Northwest 301 346 5,200 -1,475 Descending Seattle Center
Sun 08:44:14 PM 47.6608 -122.3061 270° West 247 284 4,000 -893 Descending Seattle Center
Sun 08:45:14 PM 47.6047 -122.3075 181° South 211 243 3,400 -942 Descending Seattle Center
Sun 08:46:15 PM 47.5403 -122.3100 182° South 214 246 2,100 -1,131 Descending Seattle Center
Sun 08:47:16 PM 47.4958 -122.3111 181° South 155 178 1,100 -836 Descending Seattle Center
Sun 08:48:17 PM 47.4589 -122.3122 181° South 143 165 400 -689 Descending Seattle Center
Sun 08:50:00 PM 47.4499 -122.3118 270° West  Level Estimated

Login

Don't have an account? Register now (free) for customized features, flight alerts, and more!